createdAt,value
2018-12-01T00:00:24.934Z,3.67
2018-12-01T00:02:53.404Z,4.85
2018-12-01T00:05:21.815Z,4.78
2018-12-01T00:07:50.524Z,6.58
2018-12-01T00:10:19.230Z,6.55
2018-12-01T00:12:47.614Z,5.15
2018-12-01T00:15:18.401Z,5.50
2018-12-01T00:17:47.086Z,5.37
2018-12-01T00:20:19.463Z,4.83
2018-12-01T00:22:48.119Z,5.15
2018-12-01T00:25:16.492Z,4.20
2018-12-01T00:27:44.884Z,5.40
2018-12-01T00:30:19.171Z,5.42
2018-12-01T00:32:49.437Z,4.37
2018-12-01T00:35:17.830Z,4.67
2018-12-01T00:37:46.232Z,4.40
2018-12-01T00:40:16.596Z,4.28
2018-12-01T00:42:44.999Z,5.30
2018-12-01T00:45:15.536Z,6.47
2018-12-01T00:47:45.095Z,5.17
2018-12-01T00:50:15.369Z,4.70
2018-12-01T00:52:43.818Z,4.95
2018-12-01T00:55:14.476Z,3.90
2018-12-01T00:57:42.901Z,3.87
2018-12-01T01:00:13.225Z,4.45
2018-12-01T01:02:41.916Z,3.70
2018-12-01T01:05:10.593Z,5.72
2018-12-01T01:07:38.982Z,4.90
2018-12-01T01:10:09.978Z,4.53
2018-12-01T01:12:38.339Z,4.03
2018-12-01T01:15:07.860Z,3.72
2018-12-01T01:17:37.114Z,5.22
2018-12-01T01:20:09.430Z,3.60
2018-12-01T01:22:37.847Z,3.60
2018-12-01T01:25:07.386Z,3.90
2018-12-01T01:27:35.752Z,4.35
2018-12-01T01:30:08.236Z,4.08
2018-12-01T01:32:37.172Z,3.67
2018-12-01T01:35:05.856Z,5.00
2018-12-01T01:37:34.576Z,4.28
2018-12-01T01:40:03.273Z,5.85
2018-12-01T01:42:31.660Z,3.30
2018-12-01T01:45:00.054Z,4.00
2018-12-01T01:47:28.419Z,4.00
2018-12-01T01:49:56.783Z,4.08
2018-12-01T01:52:25.179Z,5.05
2018-12-01T01:54:54.130Z,4.33
2018-12-01T01:57:22.591Z,3.15
2018-12-01T01:59:51.531Z,4.85
2018-12-01T02:02:19.921Z,3.90
2018-12-01T02:04:48.289Z,4.12
2018-12-01T02:07:16.719Z,4.62
2018-12-01T02:09:45.395Z,5.30
2018-12-01T02:12:14.313Z,3.27
2018-12-01T02:14:42.695Z,3.75
2018-12-01T02:17:11.103Z,3.60
2018-12-01T02:19:39.465Z,3.50
2018-12-01T02:22:07.903Z,3.17
2018-12-01T02:24:36.260Z,3.58
2018-12-01T02:27:04.633Z,3.17
2018-12-01T02:29:33.033Z,3.83
2018-12-01T02:32:01.552Z,4.08
2018-12-01T02:34:29.829Z,3.70
2018-12-01T02:36:58.229Z,5.17
2018-12-01T02:39:26.599Z,4.25
2018-12-01T02:41:56.117Z,3.92
2018-12-01T02:46:42.351Z,3.85
2018-12-01T02:49:11.132Z,3.35
2018-12-01T02:51:39.490Z,3.65
2018-12-01T02:54:07.947Z,3.27
2018-12-01T02:56:36.310Z,4.40
2018-12-01T02:59:04.700Z,3.55
2018-12-01T03:01:33.121Z,4.40
2018-12-01T03:04:01.739Z,4.08
2018-12-01T03:06:30.389Z,4.00
2018-12-01T03:08:58.811Z,4.47
2018-12-01T03:11:27.179Z,3.47
2018-12-01T03:13:55.549Z,3.05
2018-12-01T03:16:24.559Z,3.87
2018-12-01T03:18:53.874Z,4.65
2018-12-01T03:21:22.546Z,4.00
2018-12-01T03:23:50.943Z,3.42
2018-12-01T03:26:19.589Z,3.85
2018-12-01T03:28:47.961Z,2.85
2018-12-01T03:31:16.350Z,5.12
2018-12-01T03:33:44.740Z,4.00
2018-12-01T03:36:13.144Z,4.12
2018-12-01T03:38:41.561Z,2.90
2018-12-01T03:41:10.215Z,3.67
2018-12-01T03:43:38.617Z,3.85
2018-12-01T03:46:07.203Z,4.15
2018-12-01T03:48:35.629Z,6.60
2018-12-01T03:51:04.020Z,4.42
2018-12-01T03:53:32.411Z,4.40
2018-12-01T03:56:00.794Z,3.77
2018-12-01T03:58:29.152Z,3.30
2018-12-01T04:00:57.582Z,3.62
2018-12-01T04:03:26.241Z,4.80
2018-12-01T04:05:54.880Z,5.85
2018-12-01T04:08:23.279Z,3.90
2018-12-01T04:10:52.300Z,4.12
2018-12-01T04:13:20.661Z,4.05
2018-12-01T04:15:49.042Z,3.45
2018-12-01T04:18:17.990Z,4.55
2018-12-01T04:20:46.451Z,3.85
2018-12-01T04:23:14.831Z,4.97
2018-12-01T04:25:43.214Z,3.70
2018-12-01T04:28:12.182Z,4.83
2018-12-01T04:30:40.554Z,3.45
2018-12-01T04:33:08.951Z,5.45
2018-12-01T04:35:37.345Z,4.35
2018-12-01T04:38:06.332Z,4.12
2018-12-01T04:40:34.719Z,4.22
2018-12-01T04:43:03.108Z,4.33
2018-12-01T04:45:31.502Z,4.75
2018-12-01T04:47:59.884Z,3.35
2018-12-01T04:50:28.252Z,3.85
2018-12-01T04:52:56.636Z,3.52
2018-12-01T04:55:25.003Z,4.53
2018-12-01T04:57:53.443Z,4.67
2018-12-01T05:00:22.160Z,4.17
2018-12-01T05:02:50.523Z,4.53
2018-12-01T05:05:20.949Z,4.35
2018-12-01T05:07:49.674Z,3.40
2018-12-01T05:10:19.214Z,4.10
2018-12-01T05:12:47.895Z,5.40
2018-12-01T05:15:17.136Z,4.60
2018-12-01T05:17:45.891Z,5.20
2018-12-01T05:20:20.431Z,4.35
2018-12-01T05:22:49.205Z,4.28
2018-12-01T05:25:17.572Z,5.42
2018-12-01T05:27:46.138Z,4.47
2018-12-01T05:30:14.566Z,4.42
2018-12-01T05:32:43.231Z,5.60
2018-12-01T05:35:20.241Z,4.30
2018-12-01T05:37:49.237Z,4.37
2018-12-01T05:40:17.638Z,4.47
2018-12-01T05:42:46.291Z,5.00
2018-12-01T05:45:15.852Z,4.03
2018-12-01T05:47:44.216Z,3.72
2018-12-01T05:50:13.725Z,5.53
2018-12-01T05:52:42.108Z,5.55
2018-12-01T05:55:11.645Z,4.47
2018-12-01T05:57:40.049Z,4.00
2018-12-01T06:00:12.600Z,3.92
2018-12-01T06:02:41.049Z,4.90
2018-12-01T06:05:10.722Z,4.35
2018-12-01T06:07:39.236Z,4.78
2018-12-01T06:10:17.654Z,4.47
2018-12-01T06:12:46.568Z,3.42
2018-12-01T06:15:15.971Z,4.87
2018-12-01T06:17:44.540Z,5.20
2018-12-01T06:20:14.721Z,4.85
2018-12-01T06:22:43.081Z,4.97
2018-12-01T06:25:13.932Z,4.12
2018-12-01T06:27:42.637Z,4.87
2018-12-01T06:30:14.099Z,4.10
2018-12-01T06:32:42.760Z,5.25
2018-12-01T06:35:11.170Z,6.75
2018-12-01T06:37:39.835Z,5.53
2018-12-01T06:40:12.174Z,6.67
2018-12-01T06:42:40.472Z,4.03
2018-12-01T06:45:10.206Z,5.05
2018-12-01T06:47:39.102Z,4.60
2018-12-01T06:50:22.964Z,5.95
2018-12-01T06:52:53.048Z,4.80
2018-12-01T06:55:22.705Z,6.33
2018-12-01T06:57:51.098Z,5.97
2018-12-01T07:00:21.703Z,7.50
2018-12-01T07:02:50.328Z,6.40
2018-12-01T07:05:18.959Z,6.65
2018-12-01T07:07:47.361Z,7.25
2018-12-01T07:10:16.961Z,6.83
2018-12-01T07:12:47.645Z,7.28
2018-12-01T07:15:20.844Z,7.15
2018-12-01T07:17:49.565Z,6.30
2018-12-01T07:20:18.445Z,9.33
2018-12-01T07:22:46.822Z,7.17
2018-12-01T07:25:15.552Z,6.75
2018-12-01T07:27:43.938Z,7.80
2018-12-01T07:30:13.566Z,8.30
2018-12-01T07:32:42.603Z,7.72
2018-12-01T07:35:11.671Z,6.60
2018-12-01T07:37:40.262Z,8.38
2018-12-01T07:40:13.324Z,9.60
2018-12-01T07:42:41.713Z,8.23
2018-12-01T07:45:14.197Z,8.38
2018-12-01T07:47:42.588Z,8.93
2018-12-01T07:50:18.522Z,8.23
2018-12-01T07:52:49.384Z,7.95
2018-12-01T07:55:17.751Z,7.58
2018-12-01T07:57:46.191Z,8.28
2018-12-01T08:00:15.820Z,8.20
2018-12-01T08:02:45.873Z,11.03
2018-12-01T08:05:14.345Z,8.58
2018-12-01T08:07:42.972Z,10.08
2018-12-01T08:10:12.487Z,10.03
2018-12-01T08:12:40.911Z,9.75
2018-12-01T08:15:14.387Z,11.38
2018-12-01T08:17:42.818Z,10.25
2018-12-01T08:20:13.259Z,11.10
2018-12-01T08:22:41.832Z,10.00
2018-12-01T08:25:12.911Z,10.15
2018-12-01T08:27:41.297Z,10.50
2018-12-01T08:30:15.583Z,10.98
2018-12-01T08:32:44.236Z,10.63
2018-12-01T08:35:12.648Z,11.15
2018-12-01T08:37:41.038Z,11.85
2018-12-01T08:40:10.934Z,13.25
2018-12-01T08:42:39.349Z,12.58
2018-12-01T08:45:10.395Z,13.18
2018-12-01T08:47:39.462Z,11.60
2018-12-01T08:50:13.710Z,10.72
2018-12-01T08:52:42.584Z,11.03
2018-12-01T08:55:12.870Z,12.33
2018-12-01T08:57:41.327Z,13.35
2018-12-01T09:00:17.909Z,14.20
2018-12-01T09:02:47.891Z,15.75
2018-12-01T09:05:16.276Z,12.20
2018-12-01T09:07:44.681Z,11.10
2018-12-01T09:10:13.127Z,13.13
2018-12-01T09:12:41.980Z,10.25
2018-12-01T09:15:11.347Z,11.38
2018-12-01T09:17:40.270Z,9.70
2018-12-01T09:20:12.947Z,10.75
2018-12-01T09:22:43.870Z,9.18
2018-12-01T09:25:16.396Z,9.63
2018-12-01T09:27:45.408Z,9.50
2018-12-01T09:30:19.126Z,10.72
2018-12-01T09:32:47.653Z,12.20
2018-12-01T09:35:16.035Z,12.03
2018-12-01T09:37:44.435Z,10.95
2018-12-01T09:40:14.130Z,11.55
2018-12-01T09:42:42.605Z,10.60
2018-12-01T09:45:14.245Z,8.68
2018-12-01T09:47:43.755Z,7.90
2018-12-01T09:50:14.171Z,8.43
2018-12-01T09:52:42.846Z,10.60
2018-12-01T09:55:13.426Z,7.87
2018-12-01T09:57:42.796Z,8.93
2018-12-01T10:00:14.483Z,6.87
2018-12-01T10:02:43.505Z,8.20
2018-12-01T10:05:13.268Z,6.87
2018-12-01T10:07:41.677Z,7.45
2018-12-01T10:10:12.535Z,6.65
2018-12-01T10:12:40.932Z,6.28
2018-12-01T10:15:12.673Z,7.70
2018-12-01T10:17:41.070Z,8.73
2018-12-01T10:20:13.188Z,6.45
2018-12-01T10:22:41.776Z,6.83
2018-12-01T10:25:12.514Z,4.97
2018-12-01T10:27:40.938Z,5.37
2018-12-01T10:30:15.543Z,5.30
2018-12-01T10:32:44.264Z,7.12
2018-12-01T10:35:14.140Z,7.08
2018-12-01T10:37:42.583Z,5.65
2018-12-01T10:40:12.695Z,6.92
2018-12-01T10:42:41.131Z,6.08
2018-12-01T10:45:12.806Z,5.45
2018-12-01T10:47:41.542Z,5.35
2018-12-01T10:50:14.001Z,5.15
2018-12-01T10:52:42.472Z,5.55
2018-12-01T10:55:17.514Z,5.97
2018-12-01T10:57:46.182Z,4.97
2018-12-01T11:00:19.935Z,5.03
2018-12-01T11:02:55.710Z,3.87
2018-12-01T11:05:22.354Z,3.90
2018-12-01T11:07:51.374Z,5.67
2018-12-01T11:10:19.755Z,5.80
2018-12-01T11:12:48.471Z,4.37
2018-12-01T11:15:17.074Z,4.67
2018-12-01T11:17:45.515Z,3.75
2018-12-01T11:20:13.925Z,3.35
2018-12-01T11:22:42.583Z,3.30
2018-12-01T11:25:12.008Z,4.75
2018-12-01T11:27:40.468Z,3.77
2018-12-01T11:30:16.252Z,4.45
2018-12-01T11:32:44.826Z,4.80
2018-12-01T11:35:13.260Z,4.30
2018-12-01T11:37:41.748Z,4.37
2018-12-01T11:40:13.486Z,4.12
2018-12-01T11:42:42.472Z,3.67
2018-12-01T11:45:12.102Z,3.65
2018-12-01T11:47:40.571Z,4.05
2018-12-01T11:50:18.661Z,3.45
2018-12-01T11:52:49.228Z,3.30
2018-12-01T11:55:21.699Z,3.67
2018-12-01T11:57:50.645Z,6.08
2018-12-01T12:00:24.389Z,4.17
2018-12-01T12:02:52.992Z,4.28
2018-12-01T12:05:21.547Z,3.83
2018-12-01T12:08:01.140Z,5.53
2018-12-01T12:10:29.723Z,4.03
2018-12-01T12:12:58.265Z,4.95
2018-12-01T12:15:27.332Z,4.35
2018-12-01T12:17:58.379Z,3.62
2018-12-01T12:20:26.829Z,5.92
2018-12-01T12:22:55.279Z,6.60
2018-12-01T12:25:24.012Z,5.08
2018-12-01T12:27:52.449Z,4.40
2018-12-01T12:30:25.839Z,4.50
2018-12-01T12:32:50.663Z,4.33
2018-12-01T12:35:19.094Z,3.85
2018-12-01T12:37:47.506Z,4.53
2018-12-01T12:40:18.169Z,3.85
2018-12-01T12:42:46.771Z,4.60
2018-12-01T12:45:15.683Z,4.17
2018-12-01T12:47:44.284Z,4.72
2018-12-01T12:50:15.626Z,4.58
2018-12-01T12:52:44.918Z,4.30
2018-12-01T12:55:17.378Z,4.58
2018-12-01T12:57:45.731Z,4.33
2018-12-01T13:00:19.246Z,5.05
2018-12-01T13:02:49.918Z,6.72
2018-12-01T13:05:21.696Z,5.55
2018-12-01T13:07:50.075Z,4.50
2018-12-01T13:10:19.512Z,4.90
2018-12-01T13:12:47.924Z,6.25
2018-12-01T13:15:16.918Z,7.40
2018-12-01T13:17:45.888Z,6.28
2018-12-01T13:20:15.612Z,5.25
2018-12-01T13:22:44.324Z,5.95
2018-12-01T13:25:13.934Z,6.70
2018-12-01T13:28:16.987Z,5.33
2018-12-01T13:30:58.675Z,6.30
2018-12-01T13:33:27.219Z,6.50
2018-12-01T13:35:56.567Z,7.55
2018-12-01T13:38:24.977Z,6.50
2018-12-01T13:40:53.402Z,5.97
2018-12-01T13:43:21.824Z,7.00
2018-12-01T13:45:50.227Z,5.00
2018-12-01T13:48:18.685Z,5.30
2018-12-01T13:50:47.099Z,5.37
2018-12-01T13:53:15.642Z,5.40
2018-12-01T13:55:44.067Z,4.33
2018-12-01T13:58:12.690Z,5.62
2018-12-01T14:00:41.382Z,6.37
2018-12-01T14:03:10.198Z,6.17
2018-12-01T14:05:39.630Z,6.45
2018-12-01T14:08:08.011Z,6.15
2018-12-01T14:10:38.374Z,4.50
2018-12-01T14:13:08.444Z,4.42
2018-12-01T14:15:36.856Z,5.65
2018-12-01T14:18:06.129Z,5.37
2018-12-01T14:20:34.555Z,4.85
2018-12-01T14:23:03.293Z,4.92
2018-12-01T14:25:31.705Z,4.60
2018-12-01T14:28:15.827Z,4.65
2018-12-01T14:30:44.204Z,5.67
2018-12-01T14:33:13.143Z,3.17
2018-12-01T14:35:41.720Z,4.40
2018-12-01T14:38:14.628Z,3.52
2018-12-01T14:40:44.148Z,4.37
2018-12-01T14:43:12.654Z,4.00
2018-12-01T14:45:41.976Z,3.37
2018-12-01T14:48:10.361Z,3.70
2018-12-01T14:50:38.725Z,2.70
2018-12-01T14:53:08.416Z,2.62
2018-12-01T14:55:37.074Z,3.00
2018-12-01T14:58:06.288Z,3.00
2018-12-01T15:00:34.979Z,2.98
2018-12-01T15:03:03.455Z,1.55
2018-12-01T15:05:32.061Z,2.45
2018-12-01T15:08:00.463Z,2.42
2018-12-01T15:10:28.862Z,2.77
2018-12-01T15:12:57.241Z,1.90
2018-12-01T15:15:28.301Z,2.90
2018-12-01T15:17:56.766Z,1.40
2018-12-01T15:20:26.129Z,2.15
2018-12-01T15:22:55.988Z,2.65
2018-12-01T15:25:25.553Z,2.65
2018-12-01T15:27:54.041Z,2.90
2018-12-01T15:30:24.244Z,1.87
2018-12-01T15:33:26.067Z,2.15
2018-12-01T15:35:54.503Z,1.75
2018-12-01T15:38:23.448Z,2.58
2018-12-01T15:40:52.130Z,1.98
2018-12-01T15:43:20.874Z,2.47
2018-12-01T15:45:49.494Z,2.02
2018-12-01T15:48:17.933Z,2.55
2018-12-01T15:50:46.327Z,2.85
2018-12-01T15:53:15.613Z,1.70
2018-12-01T15:55:44.037Z,1.47
2018-12-01T15:58:12.966Z,1.47
2018-12-01T16:00:42.657Z,2.17
2018-12-01T16:03:11.069Z,1.87
2018-12-01T16:05:39.952Z,1.47
2018-12-01T16:08:09.439Z,1.75
2018-12-01T16:10:37.829Z,2.22
2018-12-01T16:13:13.924Z,2.55
2018-12-01T16:15:44.016Z,3.20
2018-12-01T16:18:12.595Z,4.00
2018-12-01T16:20:41.313Z,2.62
2018-12-01T16:23:09.918Z,2.62
2018-12-01T16:25:38.664Z,2.83
2018-12-01T16:28:08.223Z,1.70
2018-12-01T16:30:40.543Z,2.67
2018-12-01T16:33:11.701Z,2.50
2018-12-01T16:35:40.439Z,1.40
2018-12-01T16:38:10.661Z,2.55
2018-12-01T16:40:49.533Z,2.85
2018-12-01T16:43:17.990Z,1.70
2018-12-01T16:45:47.805Z,1.20
2018-12-01T16:48:16.205Z,1.85
2018-12-01T16:50:44.621Z,1.37
2018-12-01T16:53:14.398Z,2.05
2018-12-01T16:55:43.025Z,2.52
2018-12-01T16:58:11.583Z,0.90
2018-12-01T17:00:40.204Z,1.30
2018-12-01T17:03:09.725Z,1.75
2018-12-01T17:05:40.328Z,3.25
2018-12-01T17:08:08.773Z,2.47
2018-12-01T17:10:37.488Z,1.85
2018-12-01T17:13:07.362Z,2.95
2018-12-01T17:15:36.003Z,2.27
2018-12-01T17:18:05.059Z,2.55
2018-12-01T17:20:33.708Z,1.85
2018-12-01T17:23:02.329Z,1.00
2018-12-01T17:25:30.817Z,0.95
2018-12-01T17:27:59.622Z,1.07
2018-12-01T17:30:29.716Z,1.67
2018-12-01T17:32:59.590Z,1.12
2018-12-01T17:35:30.111Z,1.45
2018-12-01T17:38:00.051Z,1.55
2018-12-01T17:41:10.845Z,0.80
2018-12-01T17:43:51.610Z,0.88
2018-12-01T17:46:20.135Z,1.02
2018-12-01T17:48:48.598Z,1.32
2018-12-01T17:51:17.229Z,1.07
2018-12-01T17:53:47.839Z,1.35
2018-12-01T17:56:16.226Z,1.00
2018-12-01T17:58:44.681Z,1.17
2018-12-01T18:01:13.169Z,1.90
2018-12-01T18:03:41.884Z,1.15
2018-12-01T18:06:11.879Z,0.70
2018-12-01T18:08:40.542Z,1.27
2018-12-01T18:11:10.036Z,0.60
2018-12-01T18:13:38.450Z,0.85
2018-12-01T18:16:07.345Z,0.50
2018-12-01T18:18:35.742Z,0.50
2018-12-01T18:21:04.264Z,1.00
2018-12-01T18:23:32.924Z,0.55
2018-12-01T18:26:01.315Z,0.50
2018-12-01T18:28:34.965Z,0.82
2018-12-01T18:31:06.668Z,1.05
2018-12-01T18:33:37.164Z,0.42
2018-12-01T18:36:07.123Z,0.50
2018-12-01T18:38:35.815Z,0.50
2018-12-01T18:41:04.270Z,0.85
2018-12-01T18:43:32.686Z,2.15
2018-12-01T18:46:02.461Z,1.67
2018-12-01T18:48:31.182Z,0.40
2018-12-01T18:50:59.571Z,0.70
2018-12-01T18:53:27.955Z,0.90
2018-12-01T18:55:57.225Z,0.85
2018-12-01T18:58:25.617Z,0.95
2018-12-01T19:00:56.353Z,0.78
2018-12-01T19:03:28.200Z,0.70
2018-12-01T19:05:57.207Z,0.55
2018-12-01T19:08:25.598Z,0.45
2018-12-01T19:10:54.335Z,0.50
2018-12-01T19:13:22.930Z,0.68
2018-12-01T19:15:51.334Z,0.40
2018-12-01T19:18:20.331Z,0.50
2018-12-01T19:20:49.033Z,0.40
2018-12-01T19:23:18.302Z,0.40
2018-12-01T19:25:48.108Z,0.37
2018-12-01T19:28:16.668Z,0.50
2018-12-01T19:30:45.052Z,0.30
2018-12-01T19:33:16.152Z,0.30
2018-12-01T19:35:45.427Z,0.40
2018-12-01T19:38:17.775Z,0.40
2018-12-01T19:40:46.429Z,0.30
2018-12-01T19:43:14.817Z,0.40
2018-12-01T19:45:43.586Z,0.30
2018-12-01T19:48:12.289Z,0.30
2018-12-01T19:50:41.370Z,0.30
2018-12-01T19:53:13.312Z,0.42
2018-12-01T19:55:42.284Z,0.35
2018-12-01T19:58:15.640Z,0.30
2018-12-01T20:00:50.536Z,0.30
2018-12-01T20:03:20.432Z,0.40
2018-12-01T20:05:48.963Z,0.30
2018-12-01T20:08:18.530Z,0.30
2018-12-01T20:11:02.533Z,0.40
2018-12-01T20:13:40.267Z,0.42
2018-12-01T20:16:16.852Z,0.30
2018-12-01T20:18:45.597Z,0.30
2018-12-01T20:21:14.064Z,0.40
2018-12-01T20:23:42.491Z,0.30
2018-12-01T20:26:10.929Z,0.50
2018-12-01T20:28:39.322Z,0.20
2018-12-01T20:31:08.085Z,0.30
2018-12-01T20:33:36.451Z,0.30
2018-12-01T20:36:09.904Z,0.30
2018-12-01T20:38:44.677Z,0.30
2018-12-01T20:41:13.673Z,0.20
2018-12-01T20:43:42.076Z,0.30
2018-12-01T20:46:10.483Z,0.78
2018-12-01T20:48:38.889Z,0.30
2018-12-01T20:51:07.292Z,0.30
2018-12-01T20:53:36.193Z,0.40
2018-12-01T20:56:08.242Z,0.30
2018-12-01T20:58:36.987Z,0.30
2018-12-01T21:01:06.012Z,0.30
2018-12-01T21:03:34.411Z,0.30
2018-12-01T21:06:03.013Z,0.20
2018-12-01T21:08:31.941Z,0.30
2018-12-01T21:11:02.488Z,0.30
2018-12-01T21:13:30.875Z,0.20
2018-12-01T21:15:59.275Z,0.30
2018-12-01T21:18:27.675Z,0.20
2018-12-01T21:20:56.398Z,0.30
2018-12-01T21:23:24.781Z,0.20
2018-12-01T21:25:53.413Z,0.20
2018-12-01T21:28:22.379Z,0.30
2018-12-01T21:30:51.350Z,0.28
2018-12-01T21:33:23.770Z,0.40
2018-12-01T21:35:52.148Z,0.30
2018-12-01T21:38:20.545Z,0.30
2018-12-01T21:40:48.961Z,0.40
2018-12-01T21:43:17.386Z,0.30
2018-12-01T21:45:45.788Z,0.30
2018-12-01T21:48:14.822Z,0.30
2018-12-01T21:50:44.256Z,0.20
2018-12-01T21:53:15.689Z,0.30
2018-12-01T21:55:44.126Z,0.30
2018-12-01T21:58:12.518Z,0.30
2018-12-01T22:00:43.463Z,0.30
2018-12-01T22:03:13.420Z,0.20
2018-12-01T22:05:47.423Z,0.30
2018-12-01T22:08:16.529Z,0.30
2018-12-01T22:10:48.138Z,0.30
2018-12-01T22:13:16.538Z,0.30
2018-12-01T22:15:45.012Z,0.30
2018-12-01T22:18:13.623Z,0.30
2018-12-01T22:20:42.020Z,0.30
2018-12-01T22:23:10.721Z,0.37
2018-12-01T22:25:39.098Z,0.20
2018-12-01T22:28:09.298Z,0.30
2018-12-01T22:30:38.368Z,0.30
2018-12-01T22:33:12.626Z,0.40
2018-12-01T22:35:45.436Z,0.30
2018-12-01T22:38:13.809Z,0.57
2018-12-01T22:40:42.915Z,0.30
2018-12-01T22:43:11.903Z,0.33
2018-12-01T22:45:40.291Z,0.30
2018-12-01T22:48:12.018Z,0.30
2018-12-01T22:50:42.441Z,0.30
2018-12-01T22:53:10.916Z,0.20
2018-12-01T22:55:40.572Z,0.30
2018-12-01T22:58:10.491Z,0.23
2018-12-01T23:00:48.350Z,0.20
2018-12-01T23:03:17.059Z,0.28
2018-12-01T23:05:45.495Z,0.30
2018-12-01T23:08:15.326Z,0.30
2018-12-01T23:10:43.799Z,0.20
2018-12-01T23:13:12.181Z,0.30
2018-12-01T23:15:40.575Z,0.45
2018-12-01T23:18:10.579Z,0.20
2018-12-01T23:20:39.838Z,0.30
2018-12-01T23:23:08.725Z,0.30
2018-12-01T23:25:37.419Z,2.25
2018-12-01T23:28:06.967Z,0.30
2018-12-01T23:30:35.681Z,0.20
2018-12-01T23:33:07.881Z,0.28
2018-12-01T23:35:36.265Z,0.30
2018-12-01T23:38:04.814Z,0.30
2018-12-01T23:40:33.203Z,0.30
2018-12-01T23:43:01.605Z,0.30
2018-12-01T23:45:29.995Z,0.30
2018-12-01T23:47:58.391Z,0.20
2018-12-01T23:50:27.304Z,0.40
2018-12-01T23:53:02.294Z,0.30
2018-12-01T23:55:31.139Z,0.33
2018-12-01T23:57:59.544Z,0.30
